Time;durP1;ratioP1;P1;durP2;ratioP2;P2;SDS_P1;SDS_P2;PMS_P1;PMS_P2;Temp;Humidity;BMP_temperature;BMP_pressure;BME280_temperature;BME280_humidity;BME280_pressure;Samples;Min_cycle;Max_cycle;Signal;HPM_P1;HPM_P2
2023/09/20 00:01:03;;;;;;;8.00;5.10;;;;;;;12.01;100.00;98737.98;140411;1240;22386;-83
2023/09/20 00:04:09;;;;;;;10.70;5.70;;;;;;;11.93;100.00;98741.95;140620;1247;25302;-83
2023/09/20 00:07:10;;;;;;;9.20;5.70;;;;;;;11.85;100.00;98745.75;140798;1247;22439;-83
2023/09/20 00:10:14;;;;;;;10.30;5.30;;;;;;;11.80;100.00;98748.15;140487;1247;22382;-82
2023/09/20 00:13:15;;;;;;;9.70;5.20;;;;;;;11.73;100.00;98746.87;140406;1246;22527;-83
2023/09/20 00:16:17;;;;;;;8.60;5.20;;;;;;;11.70;100.00;98747.89;140918;1247;22523;-83
2023/09/20 00:19:18;;;;;;;6.30;5.20;;;;;;;11.68;100.00;98746.48;140432;1246;22377;-83
2023/09/20 00:22:20;;;;;;;11.10;5.10;;;;;;;11.63;100.00;98748.90;140308;1246;22330;-83
2023/09/20 00:25:21;;;;;;;5.40;4.90;;;;;;;11.60;100.00;98751.50;140810;1247;24905;-84
2023/09/20 00:28:22;;;;;;;11.40;5.40;;;;;;;11.57;100.00;98752.88;140300;1247;22856;-84
2023/09/20 00:31:24;;;;;;;20.10;5.80;;;;;;;11.93;100.00;98751.36;140239;1247;22447;-85
2023/09/20 00:34:26;;;;;;;13.10;5.50;;;;;;;11.87;100.00;98753.08;140611;1247;24233;-83
2023/09/20 00:37:30;;;;;;;8.60;4.80;;;;;;;11.74;100.00;98752.80;140512;1246;22799;-82
2023/09/20 00:40:31;;;;;;;11.30;6.10;;;;;;;11.66;100.00;98752.23;140344;1246;22686;-82
2023/09/20 00:43:32;;;;;;;9.20;5.10;;;;;;;11.57;100.00;98753.40;140416;1247;22449;-84
2023/09/20 00:46:33;;;;;;;6.20;4.70;;;;;;;11.50;100.00;98758.58;140945;1246;22382;-83
2023/09/20 00:49:34;;;;;;;8.90;4.90;;;;;;;11.45;100.00;98757.67;140303;1247;22500;-83
2023/09/20 00:52:39;;;;;;;7.40;4.90;;;;;;;11.44;100.00;98758.02;140327;1246;22537;-82
2023/09/20 00:55:42;;;;;;;10.70;4.30;;;;;;;11.42;100.00;98760.61;140927;1246;22473;-82
2023/09/20 00:58:43;;;;;;;7.80;4.30;;;;;;;11.36;100.00;98756.22;140240;1247;22758;-83
2023/09/20 01:01:44;;;;;;;9.30;4.50;;;;;;;11.31;100.00;98752.87;140297;1246;22427;-83
2023/09/20 01:04:45;;;;;;;10.20;4.50;;;;;;;11.25;100.00;98753.85;140690;1246;22518;-81
2023/09/20 01:07:49;;;;;;;4.80;4.10;;;;;;;11.22;100.00;98753.46;140563;1247;22410;-83
2023/09/20 01:10:52;;;;;;;8.20;4.10;;;;;;;11.16;100.00;98751.51;140315;1247;22344;-83
2023/09/20 01:13:53;;;;;;;114.90;10.60;;;;;;;11.13;100.00;98748.34;140467;1247;25105;-83
2023/09/20 01:16:54;;;;;;;11.50;5.30;;;;;;;11.14;100.00;98747.84;140733;1246;22755;-85
2023/09/20 01:19:55;;;;;;;6.80;4.10;;;;;;;11.13;100.00;98748.52;140319;1247;22412;-84
2023/09/20 01:22:56;;;;;;;7.80;4.50;;;;;;;11.10;100.00;98749.70;140335;1247;22498;-82
2023/09/20 01:25:58;;;;;;;4.70;4.00;;;;;;;11.06;100.00;98747.06;140981;1244;22336;-83
2023/09/20 01:28:59;;;;;;;7.80;4.10;;;;;;;11.01;100.00;98750.67;140100;1246;22515;-83
2023/09/20 01:32:00;;;;;;;7.50;4.50;;;;;;;10.99;100.00;98747.35;140286;1247;22534;-83
2023/09/20 01:35:01;;;;;;;11.20;4.90;;;;;;;10.95;100.00;98755.34;140968;1246;22428;-85
2023/09/20 01:38:06;;;;;;;16.10;5.50;;;;;;;10.95;100.00;98762.48;140077;1246;23087;-84
2023/09/20 01:41:07;;;;;;;6.00;4.60;;;;;;;10.94;100.00;98759.16;140261;1247;22535;-82
2023/09/20 01:44:08;;;;;;;8.00;4.40;;;;;;;10.88;100.00;98762.93;140658;1246;22480;-83
2023/09/20 01:47:12;;;;;;;31.90;5.20;;;;;;;10.86;100.00;98764.48;140363;1246;22660;-82
2023/09/20 01:50:13;;;;;;;7.80;4.50;;;;;;;10.84;100.00;98764.98;140251;1247;22413;-82
2023/09/20 01:53:14;;;;;;;5.50;3.40;;;;;;;10.81;100.00;98764.77;140534;1246;25267;-82
2023/09/20 01:56:15;;;;;;;13.30;4.00;;;;;;;10.75;100.00;98764.02;140510;1246;22942;-83
2023/09/20 01:59:17;;;;;;;14.50;4.60;;;;;;;10.72;100.00;98766.95;140218;1243;22353;-83
2023/09/20 02:02:18;;;;;;;8.50;4.60;;;;;;;10.71;100.00;98769.05;140338;1246;25407;-82
2023/09/20 02:05:19;;;;;;;44.10;5.90;;;;;;;10.68;100.00;98766.22;140559;1246;22534;-83
2023/09/20 02:08:20;;;;;;;5.90;4.50;;;;;;;10.67;100.00;98769.69;139918;1246;22535;-86
2023/09/20 02:11:21;;;;;;;8.70;4.30;;;;;;;10.65;100.00;98767.41;140393;1246;22598;-83
2023/09/20 02:14:22;;;;;;;13.70;5.20;;;;;;;10.67;100.00;98765.52;140820;1246;22412;-82
2023/09/20 02:17:24;;;;;;;6.20;4.90;;;;;;;10.69;100.00;98771.27;140380;1247;22390;-83
2023/09/20 02:20:26;;;;;;;10.50;5.30;;;;;;;10.68;100.00;98772.83;140066;1247;22527;-84
2023/09/20 02:23:30;;;;;;;7.20;4.10;;;;;;;10.65;100.00;98774.20;140901;1247;22267;-84
2023/09/20 02:26:32;;;;;;;5.70;4.20;;;;;;;10.60;100.00;98774.66;140145;1246;22457;-84
2023/09/20 02:29:33;;;;;;;8.60;4.90;;;;;;;10.58;100.00;98779.69;140170;1246;22865;-83
2023/09/20 02:32:35;;;;;;;15.70;5.60;;;;;;;10.55;100.00;98778.79;140572;1246;22515;-82
2023/09/20 02:35:36;;;;;;;13.00;5.30;;;;;;;10.53;100.00;98779.98;140218;1246;22828;-83
2023/09/20 02:38:37;;;;;;;7.60;4.70;;;;;;;10.51;100.00;98779.61;140194;1246;22561;-85
2023/09/20 02:41:39;;;;;;;10.80;5.10;;;;;;;10.49;100.00;98780.47;140395;1246;22528;-84
2023/09/20 02:44:40;;;;;;;17.90;5.60;;;;;;;10.48;100.00;98777.85;140242;1246;22534;-84
2023/09/20 02:47:41;;;;;;;10.10;5.50;;;;;;;10.45;100.00;98778.50;140034;1246;22601;-83
2023/09/20 02:50:44;;;;;;;10.80;5.20;;;;;;;10.44;100.00;98776.57;140583;1246;22455;-84
2023/09/20 02:53:45;;;;;;;12.90;5.30;;;;;;;10.43;100.00;98776.05;140495;1245;22376;-84
2023/09/20 02:56:46;;;;;;;9.50;5.00;;;;;;;10.41;100.00;98777.92;140294;1246;22457;-84
2023/09/20 02:59:47;;;;;;;11.20;4.50;;;;;;;10.39;100.00;98775.98;140815;1246;22467;-83
2023/09/20 03:02:49;;;;;;;13.10;4.70;;;;;;;10.37;100.00;98773.86;140602;1246;22682;-84
2023/09/20 03:05:50;;;;;;;7.80;5.20;;;;;;;10.34;100.00;98772.08;140504;1246;22539;-82
2023/09/20 03:08:53;;;;;;;9.20;5.20;;;;;;;10.31;100.00;98774.99;140327;1246;22512;-82
2023/09/20 03:11:55;;;;;;;7.50;4.70;;;;;;;10.28;100.00;98775.83;140226;1246;22442;-79
2023/09/20 03:14:59;;;;;;;16.10;4.90;;;;;;;10.25;100.00;98775.28;140235;1246;22536;-85
2023/09/20 03:18:00;;;;;;;13.00;5.70;;;;;;;10.24;100.00;98775.60;140627;1246;22405;-86
2023/09/20 03:21:05;;;;;;;11.40;5.60;;;;;;;10.22;100.00;98773.15;140200;1246;22515;-85
2023/09/20 03:24:07;;;;;;;12.50;5.20;;;;;;;10.20;100.00;98776.42;140005;1244;22525;-81
2023/09/20 03:27:09;;;;;;;6.70;5.20;;;;;;;10.16;100.00;98772.35;139800;1243;23150;-82
2023/09/20 03:30:13;;;;;;;12.10;5.40;;;;;;;10.13;100.00;98774.23;139517;1246;22556;-81
2023/09/20 03:33:21;;;;;;;13.60;5.80;;;;;;;10.09;100.00;98768.96;140422;1246;22894;-78
2023/09/20 03:36:22;;;;;;;16.40;5.00;;;;;;;10.06;100.00;98770.48;139875;1247;22499;-81
2023/09/20 03:39:24;;;;;;;66.30;8.70;;;;;;;10.04;100.00;98766.82;140522;1246;22556;-83
2023/09/20 03:42:25;;;;;;;10.30;4.50;;;;;;;10.02;100.00;98768.36;140475;1246;22411;-83
2023/09/20 03:45:28;;;;;;;60.20;6.40;;;;;;;9.97;100.00;98765.86;140784;1246;22519;-82
2023/09/20 03:48:29;;;;;;;7.80;5.30;;;;;;;9.95;100.00;98771.04;140235;1246;22788;-82
2023/09/20 03:51:31;;;;;;;8.70;5.60;;;;;;;9.95;100.00;98766.69;140728;1246;22705;-81
2023/09/20 03:54:32;;;;;;;56.30;9.00;;;;;;;9.94;100.00;98766.86;140214;1246;22450;-82
2023/09/20 03:57:33;;;;;;;23.30;6.30;;;;;;;9.94;100.00;98775.55;140002;1246;22522;-80
2023/09/20 04:00:36;;;;;;;12.10;5.60;;;;;;;9.94;100.00;98777.81;140335;1246;24673;-82
2023/09/20 04:03:40;;;;;;;6.50;5.20;;;;;;;9.92;100.00;98780.40;140040;1246;22170;-81
2023/09/20 04:06:42;;;;;;;9.20;5.80;;;;;;;9.89;100.00;98781.74;140550;1246;23073;-82
2023/09/20 04:09:44;;;;;;;9.60;6.60;;;;;;;9.86;100.00;98779.09;140421;1246;22379;-81
2023/09/20 04:12:46;;;;;;;12.10;6.30;;;;;;;9.84;100.00;98775.77;140928;1246;22341;-80
2023/09/20 04:15:47;;;;;;;28.50;8.00;;;;;;;9.85;100.00;98778.57;140911;1239;22294;-81
2023/09/20 04:18:49;;;;;;;10.10;6.70;;;;;;;9.86;100.00;98780.14;140885;1246;22299;-83
2023/09/20 04:21:50;;;;;;;20.00;7.00;;;;;;;9.84;100.00;98785.33;140883;1247;22261;-82
2023/09/20 04:24:51;;;;;;;9.70;6.40;;;;;;;9.83;100.00;98783.41;140827;1236;22246;-80
2023/09/20 04:27:53;;;;;;;14.70;10.20;;;;;;;9.83;100.00;98783.74;140787;1239;22508;-84
2023/09/20 04:30:54;;;;;;;13.20;7.40;;;;;;;9.80;100.00;98788.23;140602;1247;22418;-84
2023/09/20 04:33:55;;;;;;;14.50;6.70;;;;;;;9.80;100.00;98791.88;140901;1246;22200;-82
2023/09/20 04:36:56;;;;;;;22.60;8.30;;;;;;;9.81;100.00;98788.59;140867;1247;23185;-82
2023/09/20 04:39:57;;;;;;;10.50;6.50;;;;;;;9.81;100.00;98789.98;140965;1247;22307;-83
2023/09/20 04:42:58;;;;;;;10.70;6.70;;;;;;;9.85;100.00;98788.12;140951;1246;22179;-82
2023/09/20 04:46:02;;;;;;;21.70;6.80;;;;;;;9.86;100.00;98790.73;140391;1247;22457;-83
2023/09/20 04:49:04;;;;;;;58.70;8.30;;;;;;;9.87;100.00;98797.88;140949;1241;22259;-81
2023/09/20 04:52:08;;;;;;;37.80;7.80;;;;;;;9.90;100.00;98801.73;140882;1246;22359;-82
2023/09/20 04:55:10;;;;;;;38.20;8.10;;;;;;;9.92;100.00;98800.90;140881;1246;22274;-82
2023/09/20 04:58:12;;;;;;;17.00;6.50;;;;;;;9.96;100.00;98797.12;140881;1247;22219;-82
2023/09/20 05:01:13;;;;;;;37.20;7.50;;;;;;;9.99;100.00;98799.09;140837;1243;22246;-82
2023/09/20 05:04:15;;;;;;;52.40;12.00;;;;;;;10.05;100.00;98802.13;140846;1246;22373;-82
2023/09/20 05:07:16;;;;;;;9.60;6.40;;;;;;;10.10;100.00;98802.71;140771;1247;22529;-82
2023/09/20 05:10:17;;;;;;;13.70;6.60;;;;;;;10.14;100.00;98804.51;140856;1247;22317;-80
2023/09/20 05:13:18;;;;;;;10.20;6.10;;;;;;;10.18;100.00;98802.47;140842;1246;22354;-84
2023/09/20 05:16:20;;;;;;;13.60;5.70;;;;;;;10.22;100.00;98804.80;140874;1246;22323;-80
2023/09/20 05:19:22;;;;;;;17.10;6.60;;;;;;;10.25;100.00;98805.36;140869;1246;22340;-81
2023/09/20 05:22:24;;;;;;;14.80;6.10;;;;;;;10.31;100.00;98809.27;140765;1246;22459;-81
2023/09/20 05:25:25;;;;;;;17.60;7.10;;;;;;;10.37;100.00;98810.20;140852;1246;22244;-82
2023/09/20 05:28:26;;;;;;;13.90;6.70;;;;;;;10.40;100.00;98813.92;140895;1247;23122;-82
2023/09/20 05:31:28;;;;;;;11.00;6.70;;;;;;;10.44;100.00;98817.28;140833;1246;22331;-82
2023/09/20 05:34:29;;;;;;;7.70;5.90;;;;;;;10.50;100.00;98819.80;140827;1247;22332;-82
2023/09/20 05:37:31;;;;;;;7.10;6.10;;;;;;;10.61;100.00;98819.58;140823;1247;22780;-82
2023/09/20 05:40:33;;;;;;;10.00;6.80;;;;;;;10.77;100.00;98822.88;140823;1246;22304;-82
2023/09/20 05:43:37;;;;;;;12.40;8.20;;;;;;;11.00;100.00;98823.80;140840;1246;22476;-84
2023/09/20 05:46:38;;;;;;;118.50;15.10;;;;;;;11.33;100.00;98824.30;140802;1246;22607;-83
2023/09/20 05:49:39;;;;;;;21.70;10.50;;;;;;;11.68;100.00;98822.49;140802;1246;22383;-83
2023/09/20 05:52:43;;;;;;;17.80;9.70;;;;;;;12.03;100.00;98821.88;140731;1246;22517;-84
2023/09/20 05:55:48;;;;;;;;;;;;;;;12.35;100.00;98817.53;140582;1243;23388;-82
2023/09/20 05:58:53;;;;;;;15.10;9.70;;;;;;;12.67;100.00;98816.24;140611;1247;22510;-83
2023/09/20 06:01:58;;;;;;;14.80;8.60;;;;;;;13.04;100.00;98820.90;140486;1246;22384;-83
2023/09/20 06:05:00;;;;;;;13.30;9.20;;;;;;;13.28;100.00;98822.19;140862;1246;22277;-82
2023/09/20 06:08:04;;;;;;;15.30;7.70;;;;;;;13.54;100.00;98821.32;140853;1247;22274;-81
2023/09/20 06:11:05;;;;;;;17.10;10.30;;;;;;;13.83;100.00;98823.04;140872;1246;22302;-80
2023/09/20 06:14:09;;;;;;;16.60;11.10;;;;;;;14.13;100.00;98822.65;140878;1246;22304;-80
2023/09/20 06:17:28;;;;;;;40.70;11.50;;;;;;;14.47;100.00;98823.62;140864;1246;22987;-79
2023/09/20 06:20:31;;;;;;;26.60;9.50;;;;;;;14.77;100.00;98825.77;140602;1246;22395;-82
2023/09/20 06:23:33;;;;;;;32.50;9.60;;;;;;;15.46;100.00;98825.33;140886;1240;22492;-81
2023/09/20 06:26:34;;;;;;;18.40;8.90;;;;;;;16.35;100.00;98827.67;140896;1246;22168;-81
2023/09/20 06:29:35;;;;;;;39.40;8.90;;;;;;;17.14;100.00;98833.71;140865;1246;22380;-81
2023/09/20 06:32:38;;;;;;;67.40;10.20;;;;;;;17.63;100.00;98833.69;140906;1246;22338;-81
2023/09/20 06:35:39;;;;;;;18.50;8.50;;;;;;;18.13;100.00;98834.95;140859;1246;22412;-81
2023/09/20 06:38:43;;;;;;;18.70;7.10;;;;;;;18.65;100.00;98836.61;140912;1246;22323;-80
2023/09/20 06:41:44;;;;;;;13.30;7.00;;;;;;;19.01;100.00;98836.54;140896;1246;22420;-81
2023/09/20 06:44:45;;;;;;;17.00;7.40;;;;;;;19.31;100.00;98842.05;140883;1246;22325;-80
2023/09/20 06:47:46;;;;;;;12.20;6.60;;;;;;;19.68;100.00;98844.89;140941;1247;22912;-81
2023/09/20 06:50:48;;;;;;;14.70;6.90;;;;;;;19.85;100.00;98845.53;140898;1246;23016;-81
2023/09/20 06:53:49;;;;;;;18.40;6.20;;;;;;;19.91;100.00;98850.69;140911;1246;23009;-82
2023/09/20 06:56:50;;;;;;;9.80;5.80;;;;;;;20.00;100.00;98846.59;140430;1245;22400;-83
2023/09/20 06:59:52;;;;;;;17.60;6.70;;;;;;;20.14;100.00;98846.58;140398;1246;22581;-83
2023/09/20 07:02:54;;;;;;;10.90;6.10;;;;;;;20.23;100.00;98846.48;140811;1246;22460;-81
2023/09/20 07:05:56;;;;;;;11.90;5.70;;;;;;;20.15;100.00;98846.89;140418;1246;22531;-81
2023/09/20 07:08:57;;;;;;;11.50;5.80;;;;;;;20.30;100.00;98851.98;140587;1246;22619;-81
2023/09/20 07:12:01;;;;;;;11.90;5.50;;;;;;;20.56;100.00;98856.23;140859;1246;22544;-81
2023/09/20 07:15:05;;;;;;;;;;;;;;;20.77;100.00;98857.58;140687;1247;22466;-81
2023/09/20 07:18:11;;;;;;;10.20;5.10;;;;;;;21.00;100.00;98862.56;140911;1244;22616;-81
2023/09/20 07:21:14;;;;;;;12.90;4.90;;;;;;;21.18;100.00;98863.44;140765;1246;22761;-83
2023/09/20 07:24:15;;;;;;;10.00;5.20;;;;;;;21.17;100.00;98867.39;140993;1247;22334;-80
2023/09/20 07:27:18;;;;;;;11.20;4.90;;;;;;;20.85;100.00;98867.23;140920;1246;22303;-80
2023/09/20 07:30:21;;;;;;;7.30;5.10;;;;;;;20.71;100.00;98871.53;140852;1246;22377;-79
2023/09/20 07:33:30;;;;;;;8.20;5.80;;;;;;;20.98;100.00;98869.00;140893;1246;22260;-80
2023/09/20 07:39:50;;;;;;;7.50;4.90;;;;;;;21.37;100.00;98866.40;140684;1246;23226;-80
2023/09/20 07:42:52;;;;;;;11.30;4.80;;;;;;;21.68;100.00;98871.80;140655;1246;22793;-82
2023/09/20 07:45:54;;;;;;;6.70;4.40;;;;;;;21.80;100.00;98877.09;140798;1244;22998;-82
2023/09/20 07:48:56;;;;;;;11.00;4.80;;;;;;;21.72;100.00;98878.42;140823;1246;22330;-82
2023/09/20 07:51:57;;;;;;;17.90;4.80;;;;;;;21.58;100.00;98878.30;140843;1246;22336;-81
2023/09/20 07:54:58;;;;;;;15.30;4.70;;;;;;;21.77;100.00;98881.28;140879;1247;22364;-82
2023/09/20 07:57:59;;;;;;;6.50;4.60;;;;;;;22.02;100.00;98885.04;140972;1246;22731;-81
2023/09/20 08:01:00;;;;;;;11.00;4.80;;;;;;;22.25;100.00;98883.77;140938;1246;22370;-81
2023/09/20 08:04:06;;;;;;;7.30;4.40;;;;;;;22.33;100.00;98887.19;140911;1247;22865;-81
2023/09/20 08:07:07;;;;;;;9.80;5.20;;;;;;;21.87;100.00;98889.95;140932;1246;22908;-81
2023/09/20 08:10:08;;;;;;;7.90;4.50;;;;;;;21.77;100.00;98893.32;140931;1246;22403;-81
2023/09/20 08:13:13;;;;;;;12.10;4.30;;;;;;;21.58;100.00;98892.66;140385;1247;22378;-81
2023/09/20 08:16:15;;;;;;;8.90;4.60;;;;;;;21.56;100.00;98896.63;140697;1246;22542;-81
2023/09/20 08:19:21;;;;;;;9.60;3.70;;;;;;;21.70;100.00;98893.69;140827;1247;22405;-82
2023/09/20 08:22:23;;;;;;;19.00;4.90;;;;;;;21.95;100.00;98893.09;140837;1247;22379;-82
2023/09/20 09:02:10;;;;;;;7.10;3.10;;;;;;;23.00;62.89;98888.02;140935;1247;22318;-81
2023/09/20 09:05:12;;;;;;;9.20;3.40;;;;;;;23.18;62.58;98884.66;140981;1247;22253;-80
2023/09/20 09:08:13;;;;;;;8.40;3.30;;;;;;;23.44;61.28;98883.65;140927;1247;22303;-81
2023/09/20 09:11:14;;;;;;;6.10;3.00;;;;;;;23.29;61.18;98882.45;140931;1247;22421;-81
2023/09/20 09:14:15;;;;;;;9.20;3.50;;;;;;;23.42;61.53;98882.13;140968;1247;22324;-80
2023/09/20 09:17:17;;;;;;;6.10;3.10;;;;;;;23.59;59.91;98881.66;140949;1240;22645;-81
2023/09/20 09:20:19;;;;;;;3.90;2.90;;;;;;;23.43;59.72;98881.02;140988;1247;22273;-80
2023/09/20 09:23:20;;;;;;;8.40;2.80;;;;;;;23.31;57.59;98878.11;140986;1246;22351;-80
2023/09/20 09:26:23;;;;;;;6.60;2.90;;;;;;;22.91;57.55;98876.29;140965;1247;22733;-80
2023/09/20 09:29:24;;;;;;;28.20;3.90;;;;;;;22.87;58.32;98874.48;140975;1246;22348;-80
2023/09/20 09:32:26;;;;;;;14.30;3.30;;;;;;;23.04;59.02;98868.67;140965;1246;22318;-80
2023/09/20 09:35:27;;;;;;;6.70;3.60;;;;;;;23.35;58.75;98863.92;140960;1246;22323;-80
2023/09/20 09:38:32;;;;;;;13.60;3.10;;;;;;;23.43;57.69;98859.34;140404;1246;22277;-80
2023/09/20 09:41:33;;;;;;;12.70;2.90;;;;;;;23.50;56.87;98862.28;140344;1247;22531;-79
2023/09/20 09:44:35;;;;;;;5.10;2.50;;;;;;;23.63;56.52;98857.16;140446;1246;22641;-81
2023/09/20 09:47:39;;;;;;;20.60;3.80;;;;;;;23.61;55.37;98860.81;140385;1247;22358;-81
2023/09/20 09:50:40;;;;;;;8.50;2.90;;;;;;;23.47;54.67;98859.20;140452;1247;22418;-78
2023/09/20 09:53:41;;;;;;;8.90;3.20;;;;;;;23.28;55.32;98860.29;140813;1246;22670;-79
2023/09/20 09:56:43;;;;;;;10.50;3.00;;;;;;;23.34;55.23;98862.38;140691;1246;22405;-79
2023/09/20 09:59:44;;;;;;;8.30;3.40;;;;;;;23.53;54.59;98855.61;140555;1247;22399;-78
2023/09/20 10:02:45;;;;;;;6.60;2.80;;;;;;;23.64;53.01;98858.73;140721;1246;22561;-79
2023/09/20 10:05:46;;;;;;;10.20;3.20;;;;;;;23.41;53.33;98854.44;140917;1246;22427;-79
2023/09/20 10:08:48;;;;;;;8.20;2.50;;;;;;;23.52;53.13;98854.92;140937;1247;22154;-80
2023/09/20 10:11:50;;;;;;;7.40;3.00;;;;;;;23.74;53.89;98854.60;140881;1247;22344;-80
2023/09/20 10:14:51;;;;;;;6.20;2.80;;;;;;;23.81;53.57;98853.21;140867;1246;22396;-79
2023/09/20 10:17:54;;;;;;;8.50;2.70;;;;;;;24.03;52.86;98845.90;140578;1243;22370;-80
2023/09/20 10:20:57;;;;;;;19.50;3.90;;;;;;;24.24;52.65;98836.27;140395;1246;22606;-80
2023/09/20 10:24:00;;;;;;;5.80;3.30;;;;;;;24.37;51.10;98833.98;140795;1247;23043;-80
2023/09/20 10:27:03;;;;;;;8.30;3.00;;;;;;;24.43;50.55;98836.38;140609;1246;22380;-79
2023/09/20 10:30:09;;;;;;;3.90;2.50;;;;;;;24.55;51.92;98842.25;140453;1247;22427;-80
2023/09/20 10:33:10;;;;;;;11.90;3.50;;;;;;;24.55;51.25;98841.89;140605;1247;22495;-79
2023/09/20 10:36:11;;;;;;;5.30;2.70;;;;;;;24.59;51.64;98838.70;140835;1247;22373;-81
2023/09/20 10:39:13;;;;;;;11.70;2.70;;;;;;;24.55;51.77;98837.61;140663;1247;22430;-82
2023/09/20 10:42:14;;;;;;;3.40;2.40;;;;;;;24.40;52.06;98840.80;140914;1247;22386;-80
2023/09/20 10:45:16;;;;;;;29.00;3.90;;;;;;;24.37;53.39;98834.87;140923;1247;22432;-80
2023/09/20 10:48:18;;;;;;;9.40;3.10;;;;;;;24.48;51.57;98829.95;140186;1247;22533;-79
2023/09/20 10:51:19;;;;;;;6.50;2.70;;;;;;;24.54;50.84;98836.94;140032;1247;22631;-78
2023/09/20 10:54:20;;;;;;;7.30;2.60;;;;;;;24.60;50.60;98839.02;140914;1246;22851;-79
2023/09/20 10:57:23;;;;;;;4.10;2.40;;;;;;;24.64;50.67;98836.70;140221;1247;22438;-79
2023/09/20 11:00:30;;;;;;;;;;;;;;;24.56;50.49;98831.71;140282;1247;22720;-79
2023/09/20 11:03:32;;;;;;;10.80;3.00;;;;;;;24.40;50.38;98831.71;140789;1232;22508;-79
2023/09/20 11:06:33;;;;;;;8.30;3.30;;;;;;;24.39;51.20;98829.11;140460;1247;22392;-80
2023/09/20 11:09:34;;;;;;;10.60;2.60;;;;;;;24.48;50.79;98827.63;140264;1246;22412;-80
2023/09/20 11:12:36;;;;;;;9.70;3.10;;;;;;;24.37;51.61;98826.14;140904;1247;22346;-80
2023/09/20 11:15:41;;;;;;;6.70;2.80;;;;;;;24.38;50.95;98825.24;140897;1247;22296;-81
2023/09/20 11:18:42;;;;;;;6.40;2.50;;;;;;;24.45;51.39;98826.85;140741;1247;23016;-78
2023/09/20 11:21:47;;;;;;;9.70;3.10;;;;;;;24.48;50.36;98826.91;140570;1241;22542;-80
2023/09/20 11:24:51;;;;;;;10.20;2.90;;;;;;;24.41;50.43;98817.95;140773;1246;22548;-81
2023/09/20 11:27:52;;;;;;;7.00;3.20;;;;;;;24.45;51.16;98817.81;140366;1247;22897;-80
2023/09/20 11:30:54;;;;;;;11.00;2.90;;;;;;;24.44;50.81;98819.24;140912;1247;22698;-79
2023/09/20 11:33:56;;;;;;;6.70;3.10;;;;;;;24.45;50.24;98817.80;140874;1247;22921;-80
2023/09/20 11:36:57;;;;;;;10.30;2.90;;;;;;;24.38;50.27;98816.17;140826;1247;22982;-80
2023/09/20 11:40:01;;;;;;;3.00;2.40;;;;;;;24.38;50.26;98813.30;140865;1247;22644;-80
2023/09/20 11:43:02;;;;;;;8.50;2.70;;;;;;;24.13;50.74;98806.86;140877;1247;22175;-79
2023/09/20 11:46:04;;;;;;;10.10;3.10;;;;;;;24.25;50.95;98798.73;140248;1247;22605;-78
2023/09/20 11:49:06;;;;;;;17.20;3.30;;;;;;;24.38;50.67;98793.38;140547;1246;22564;-77
2023/09/20 11:52:07;;;;;;;123.90;11.10;;;;;;;24.43;50.44;98794.41;140415;1244;22376;-80
2023/09/20 11:55:09;;;;;;;7.40;2.70;;;;;;;24.43;50.54;98788.52;140832;1247;22535;-81
2023/09/20 11:58:11;;;;;;;13.70;2.90;;;;;;;24.42;50.75;98786.08;140646;1247;22542;-80
2023/09/20 12:01:13;;;;;;;26.10;3.90;;;;;;;24.51;51.10;98785.71;140225;1245;22407;-81
2023/09/20 12:04:20;;;;;;;20.30;3.20;;;;;;;24.42;50.61;98777.02;140013;1247;22400;-80
2023/09/20 12:07:21;;;;;;;14.00;2.70;;;;;;;24.65;49.68;98778.45;140730;1247;22528;-79
2023/09/20 12:10:23;;;;;;;3.50;2.30;;;;;;;24.70;48.36;98773.95;140689;1247;22932;-79
2023/09/20 12:13:25;;;;;;;4.40;2.20;;;;;;;24.54;48.06;98775.97;140922;1242;22355;-79
2023/09/20 12:16:26;;;;;;;20.20;3.40;;;;;;;24.32;49.06;98770.36;140881;1247;22731;-78
2023/09/20 12:19:28;;;;;;;23.70;3.30;;;;;;;24.51;50.37;98766.84;140835;1247;22833;-80
2023/09/20 12:22:29;;;;;;;20.70;3.80;;;;;;;24.83;49.58;98764.08;140810;1247;22295;-81
2023/09/20 12:25:30;;;;;;;7.70;2.20;;;;;;;25.02;49.45;98766.61;140639;1247;22172;-80
2023/09/20 12:28:31;;;;;;;11.10;3.40;;;;;;;25.08;49.49;98764.00;140725;1247;22367;-79
2023/09/20 12:31:32;;;;;;;29.00;4.80;;;;;;;25.17;48.87;98763.20;139954;1247;22404;-77
2023/09/20 12:34:34;;;;;;;45.40;5.00;;;;;;;25.18;48.74;98763.34;140171;1247;23108;-79
2023/09/20 12:37:35;;;;;;;33.70;3.80;;;;;;;25.16;48.91;98756.30;140589;1247;22903;-80
2023/09/20 12:40:36;;;;;;;23.40;3.40;;;;;;;25.18;48.54;98751.77;140459;1247;22371;-81
2023/09/20 12:43:38;;;;;;;12.00;3.10;;;;;;;25.18;48.62;98745.90;140673;1247;22480;-81
2023/09/20 12:46:42;;;;;;;6.20;2.70;;;;;;;25.26;48.39;98748.54;140987;1247;22068;-81
2023/09/20 12:49:44;;;;;;;7.20;2.90;;;;;;;25.35;48.18;98744.70;140922;1247;22376;-82
2023/09/20 12:52:46;;;;;;;8.50;3.40;;;;;;;25.39;48.67;98739.66;140978;1247;22305;-81
2023/09/20 12:55:48;;;;;;;4.20;2.10;;;;;;;25.27;48.30;98743.48;140957;1247;22268;-80
2023/09/20 12:58:50;;;;;;;13.50;2.70;;;;;;;25.09;48.42;98740.29;141013;1245;22248;-80
2023/09/20 13:01:51;;;;;;;5.70;2.10;;;;;;;25.00;48.13;98738.39;141016;1247;22258;-81
2023/09/20 13:04:53;;;;;;;4.00;2.40;;;;;;;24.92;47.69;98736.05;140935;1247;22220;-80
2023/09/20 13:07:54;;;;;;;3.30;1.90;;;;;;;25.03;47.89;98732.36;140917;1247;22301;-81
2023/09/20 13:10:55;;;;;;;4.20;2.20;;;;;;;24.95;47.93;98732.55;140937;1247;22322;-82
2023/09/20 13:13:57;;;;;;;4.40;2.10;;;;;;;25.07;48.35;98726.97;140920;1247;22366;-81
2023/09/20 13:16:58;;;;;;;45.50;6.80;;;;;;;25.21;48.04;98712.83;140872;1247;22772;-81
2023/09/20 13:20:00;;;;;;;8.10;2.20;;;;;;;25.31;46.88;98716.08;140781;1247;22299;-81
2023/09/20 13:23:01;;;;;;;4.40;1.90;;;;;;;25.32;46.73;98717.07;140772;1247;22270;-82
2023/09/20 13:26:03;;;;;;;3.50;1.90;;;;;;;25.11;47.11;98717.20;140756;1247;22239;-81
2023/09/20 13:29:08;;;;;;;5.40;2.10;;;;;;;25.19;47.51;98721.11;140719;1247;22318;-81
2023/09/20 13:32:09;;;;;;;7.70;2.40;;;;;;;25.12;47.24;98715.36;140737;1247;22284;-81
2023/09/20 13:35:10;;;;;;;8.90;2.50;;;;;;;25.22;47.28;98717.54;140802;1247;22332;-81
2023/09/20 13:38:12;;;;;;;5.60;2.10;;;;;;;25.27;47.61;98711.08;140883;1247;22323;-81
2023/09/20 13:41:13;;;;;;;5.40;2.20;;;;;;;25.39;46.88;98709.02;140878;1247;22282;-80
2023/09/20 13:44:14;;;;;;;29.10;2.90;;;;;;;25.46;46.45;98699.45;140888;1247;22756;-81
2023/09/20 13:47:16;;;;;;;16.60;2.90;;;;;;;25.41;46.02;98700.02;140872;1247;22295;-81
2023/09/20 13:50:17;;;;;;;5.60;2.40;;;;;;;25.42;46.32;98702.84;140849;1246;22280;-81
2023/09/20 13:53:18;;;;;;;5.70;1.90;;;;;;;25.32;46.89;98701.20;140543;1247;22552;-81
2023/09/20 13:56:19;;;;;;;3.70;2.10;;;;;;;25.25;47.07;98699.45;140823;1247;22462;-81
2023/09/20 13:59:20;;;;;;;3.00;2.00;;;;;;;25.21;47.16;98695.73;140851;1247;22308;-81
2023/09/20 14:02:22;;;;;;;4.70;2.00;;;;;;;25.24;46.57;98693.23;140831;1247;22667;-81
2023/09/20 14:05:26;;;;;;;5.60;2.30;;;;;;;25.27;46.54;98691.86;140831;1247;22340;-81
2023/09/20 14:08:27;;;;;;;7.80;2.20;;;;;;;25.30;47.25;98689.55;140787;1245;22962;-82
2023/09/20 14:11:29;;;;;;;6.50;2.00;;;;;;;25.34;46.79;98687.59;140911;1244;22455;-83
2023/09/20 14:14:33;;;;;;;4.50;1.90;;;;;;;25.24;46.60;98684.19;140924;1247;22306;-82
2023/09/20 14:17:37;;;;;;;2.50;1.90;;;;;;;25.30;47.33;98690.27;140496;1247;22883;-83
2023/09/20 14:20:41;;;;;;;6.50;2.10;;;;;;;25.36;47.40;98687.83;140915;1247;22701;-81
2023/09/20 14:23:54;;;;;;;4.60;1.70;;;;;;;25.33;47.05;98688.34;140956;1247;22285;-83
2023/09/20 14:27:01;;;;;;;2.60;2.00;;;;;;;25.18;46.93;98685.71;140461;1247;22900;-83
2023/09/20 14:30:08;;;;;;;8.60;2.20;;;;;;;25.08;47.05;98680.98;140600;1247;22467;-83
2023/09/20 14:33:09;;;;;;;6.40;2.10;;;;;;;25.08;47.02;98679.40;140729;1247;22347;-83
2023/09/20 14:36:11;;;;;;;7.40;2.10;;;;;;;25.08;47.06;98679.39;140657;1247;22882;-83